Terminal Aerodrome Forecast
Issued by NWS Twin Cities, MN

Home | Current Version | Previous Version | Graphics & Text | Print | Product List | Glossary On
Versions: 1 2 3 4 5 6 7 8 9 10 11 12 13 14 15 16 17 18 19 20 21 22 23 24 25 26 27 28 29 30 31 32 33
000
FTUS43 KMPX 240859 AAA
TAFMSP
TAF AMD
KMSP 240859Z 2409/2512 14009KT P6SM FEW020 BKN250
     FM241500 13012G18KT P6SM SCT020 BKN150
     FM250000 12013G18KT 6SM -RASN BKN025 OVC090
     FM250100 12013KT 1SM -SN BR OVC015
      TEMPO 2503/2506 1/2SM SN FG=

USA.gov is the U.S. government's official web portal to all federal, state and local government web resources and services.